Warning: A non-numeric value encountered in /home/httpd/v/a/l/valdefench57sgz/valdefench57sgz.franceserv.com/weather28/wsFunctions.php on line 312
WARNING - Change wsUserSettings.php: $SITE["topfolder"] from : /home/httpd/v/a/l/valdefench57sgz/valdefench57sgz.franceserv.com/weather28/ to: weather28/
  Séremange Erzange, Lorraine, Moselle 57, France.  (25 km au Nord de Metz et 10 km au Sud-Ouest de Thionville)    Latitude : 49° 18' 59'' Nord    Longitude : 6° 5' 33'' Est    Altitude : 210 Mètres  



My webcam FOSCAM plus d'informations My webcam FOSCAM


My webcam 2 facing SUD plus d'informations My webcam 2 facing SUD


Visitez nos sites météorologiques autres:

Cartes by Infoclimat

Releves de station MF

Site partenaire

MeteoTemplate

BLOG/MeteoTemplate.com

MK meteokit

HomeWeatherStation WU

Home MeteoLive Station 2

Radar Meteox

Radar Meteo60

carte MétéoAlerte

Image satellite par ARPAL_meteoFermo

Data Infoclimat.fr

Radars Pluies NE

Vigilance meteo FR

Keraunos

Carte Isobares

Tags GFS

Bracknell Animation

Air Lorraine



Orages Valable du: 16-07-2018 17:40 Au: 17-07-2018 15:00 Avertissement pour: Orages Niveau: Jaune info button

Rapports METAR proximité

   
LFJL - Metz
Mise à jour: 17-07-2018 01:30
Ciel peu couvert  
Ciel peu couvert  
   Vent: Sud Sud Ouest 5.6 km/h
Vent: Sud Sud Ouest 5.6 km/h
Température: 20°C
Point de rosée: 14°C
Humidité: 69%
Baromètre: 1014 hPa
visibilité: More then 10 km
Détails des nuages: Ciel peu couvert ft
LFJL 162330Z AUTO 21003KT CAVOK 20/14 Q1014 NOSIG
ELLX - Luxemburg
Mise à jour: 17-07-2018 01:20
Ciel peu couvert  
Ciel peu couvert  
   Vent: Nord Est 11.1 km/h
Vent: Nord Est 11.1 km/h
Température: 21°C
Point de rosée: 10°C
Humidité: 50%
Baromètre: 1014 hPa
Nuages: Clear
visibilité: More then 10 km
Détails des nuages: Ciel peu couvert ft
ELLX 162320Z AUTO 04006KT 9999 NCD 21/10 Q1014 NOSIG
EDDR - Sarrbrucken
Mise à jour: 17-07-2018 01:20
Ciel peu couvert  
Ciel peu couvert  
   Vent: varie 3.7 km/h
Vent: varie 3.7 km/h
Température: 16°C
Point de rosée: 13°C
Humidité: 83%
Baromètre: 1014 hPa
Nuages: Clear
visibilité: More then 10 km
Détails des nuages: Ciel peu couvert ft
EDDR 162320Z AUTO VRB02KT 9999 // NCD 16/13 Q1014
LFST - Strasbourg
Mise à jour: 17-07-2018 01:30
Ciel peu couvert  
Ciel peu couvert  
   Vent: varie 3.7 km/h
Vent: varie 3.7 km/h
Température: 17°C
Point de rosée: 14°C
Humidité: 83%
Baromètre: 1013 hPa
visibilité: More then 10 km
Détails des nuages: Ciel peu couvert ft
LFST 162330Z AUTO VRB02KT CAVOK 17/14 Q1013 NOSIG
  

Script développé par  Saratoga-weather.org Adapté pour le modèle par  Weerstation Leuven

Vous trouverez notre info météo Également à:

UK Metoffice

WeatherCloud

Weather Underground

French Weather Network

AWEKAS

WeatherlinkIP

Citizen Weather Observer Program (CWOP)

HAMweather, WeatherForYou, PWS Weather

Anything Weather

Infoclimat

lineaMeteo

meteonetwork

meteociel

stationmeteo

meteobelgique

wedaal24

wsmap

arps

weatherbug

wetterstationen

windgurucz

         

Équipement que nous utilisons:

Station de Météo
Davis VP2 Plus (Wireless)

Programme Météo
Meteohub

Ordinateur Météo
MeteoLink LAN

Provider
FranceServ Hébergement

Davis VP2 Plus (Wireless)

Meteohub

MeteoLink LAN

FranceServ Hébergement